Etusivu
METAR-TAF:

METAR-TAF

Lentoasemat :

Brunei, Brunei

Leveyspiiri: 04-56N, Pituuspiiri: 114-56E, korkeus merenpinnasta: 22 m

Tämänhetkinen sää

Tämä raportti tehtiin 49 minuuttia sitten, kello 18.00 UTC
Tuuli 2 kn etelästä/lounaasta
Lämpötila 27°C
Kosteus 94%
Ilmanpaine 1009 hPa
Näkyvyys 10 km tai enemmän
Muutamia pilviä 1500 ft:n korkeudessa
Hajonneita pilviä 28000 ft:n korkeudessa

METAR: WBSB 231800Z 20002KT 9999 FEW015 BKN280 27/26 Q1009 NOSIG

Aika: 02:49 (18:49 UTC)

Sääennuste

Tämä raportti tehtiin 2 tuntia ja 4 minuuttia sitten, kello 16.45 UTC
Ennuste voimassa 23. päivästä klo 18 UTC - 25. päivään klo 00 UTC
Tuuli 2 kn lounaasta
Näkyvyys 10 km tai enemmän
Muutamia pilviä 1400 ft:n korkeudessa
Tulossa
24. päivästä klo 03 UTC - 24. päivään klo 05 UTC
Tuuli 10 kn lännestä/lounaasta
Muutamia pilviä 1600 ft:n korkeudessa
Muutamia pilviä 1700 ft:n korkeudessa, Cumulonimbus.

TAF: WBSB 231645Z 2318/2500 23002KT 9999 FEW014 BECMG 2403/2405 25010KT FEW016 FEW017CB

Säähavainnot ja -ennusteet yli 4000 lentoasemalta (METAR- ja TAF-raportit).

Käytössä olevat sääasemat on merkitty karttaan keltaisilla ja punaisilla pisteillä.

Aseta hiiri pisteen päälle nähdäksesi sääaseman nimen.

Klikkaa sitten nähdäksesi säähavainnot ja -ennusteet.

Kartan vaihtaminen: klikkaa mustalla rastilla varustettuja vihreitä pisteitä, niin voit zoomata sisään; viivalla varustettua vihreää pistettä, niin voit zoomata ulos tai vihreitä nuolia, niin pääset viereisille kartoille.


METAR-TAF: